Terminal Aerodrome Forecast
Issued by NWS Norman, OK

Home | Current Version | Previous Version | Text Only | Print | Product List | Glossary On
Versions: 1 2 3 4 5 6 7 8 9 10 11 12 13 14 15 16 17 18 19 20 21 22 23
000
FTUS44 KOUN 032325
TAFOKC
TAF
KOKC 032325Z 0400/0424 13006KT P6SM BKN150 BKN250
     FM040800 15006KT P6SM BKN080 OVC150 PROB30 0409/0415 4SM TSRA
      BKN040CB OVC080
     FM041700 16010KT P6SM SCT080 BKN150=

USA.gov is the U.S. government's official web portal to all federal, state and local government web resources and services.